KSDF

Louisville International-Standiford Field Airport

Louisville, Kentucky, USA
METAR KSDF 232256Z 26016KT 10SM SCT020 BKN028 OVC046 04/M01 A3007 RMK AO2 SLP185 T00391006
Observed Flight Rules
Jan-23 @ 22:56 UTC (45 minutes ago) Marginal Visual Flight Rules
Wind Visibility Clouds
260° at 16 knots 10 miles
  • Scattered at 2,000' AGL
  • Broken at 2,800' AGL
  • Overcast at 4,600' AGL
Temperatures Readings
Current 4°C / 39°F
Dewpoint -1°C / 30°F
Humidity 70%
Altimeter 30.07" Hg
Pressure 1018.5 hPa
Elevation 146
METAR KSDF 232256Z 26016KT 10SM SCT020 BKN028 OVC046 04/M01 A3007 RMK AO2 SLP185 T00391006
Observed Flight Rules
Jan-23 @ 22:56 UTC
(45 minutes ago)
MVFR
Wind Visibility
260° at 16 knots 10 miles
Clouds
  • Scattered at 2,000' AGL
  • Broken at 2,800' AGL
  • Overcast at 4,600' AGL
Temperature Dewpoint
4°C / 39°F -1°C / 30°F
Humidity Altimeter Pressure
70% 30.07" Hg 1018.5 hPa